»·PEaware :: N505AP KSBD-KEMT

N505AP :: KSBD-KEMT

FLIGHT INFORMATION

Flight Status: Arrived
Operator: Privately registered:
United States
More flights under this callsign
Pilot: Ryan B. (26253)
Aircraft: CESSNA 172 SKYHAWK
(C172)
More flights by this aircraft type
Origin: KSBD San Bernardino Intl
United States
Destination: KEMT El Monte
United States
More flights between these airports :: More routes between these airports
Route: KSBD-KEMT
File this flight plan on PilotEdge
Remarks: CAT-07 Rating
Altitude:
(Current/Filed)
4,500ft
Speed:
(Current/Filed)
115kts
Departed: 25-Oct-19 09:45 AM
Arrived: 25-Oct-19 10:32 AM
Distance/Time
Traveled:
40nm/0:47
Distance/Time
To Go:
Arrived

Flight Plot

Page will automatically refresh every two minutes.

Flight plan parsing failed; only flown route is shown


Map Options




Map Legend


Flown Route
Filed Route
Departure Airport
Arrival Airport
Navaid (VOR, NDB)
Fix

Horizontal Profiles

Position Reports

Time Latitude Longitude Heading Altitude Ground
Speed
25-Oct-19 09:29 34.102166 -117.224730 93 1146ft 0kts
25-Oct-19 09:30 34.102166 -117.224730 93 1146ft 0kts
25-Oct-19 09:31 34.102166 -117.224730 93 1146ft 0kts
25-Oct-19 09:32 34.102166 -117.224730 93 1146ft 0kts
25-Oct-19 09:33 34.102166 -117.224730 93 1146ft 0kts
25-Oct-19 09:34 34.102166 -117.224730 93 1146ft 0kts
25-Oct-19 09:35 34.101831 -117.224715 182 1146ft 7kts
25-Oct-19 09:36 34.099691 -117.226768 238 1139ft 21kts
25-Oct-19 09:37 34.098209 -117.231196 249 1127ft 26kts
25-Oct-19 09:38 34.096815 -117.235971 250 1115ft 25kts
25-Oct-19 09:39 34.095475 -117.240289 249 1103ft 17kts
25-Oct-19 09:40 34.094367 -117.244238 249 1095ft 27kts
25-Oct-19 09:41 34.092631 -117.250110 249 1083ft 24kts
25-Oct-19 09:42 34.091654 -117.250798 157 1082ft 0kts
25-Oct-19 09:43 34.091654 -117.250798 157 1082ft 0kts
25-Oct-19 09:44 34.092745 -117.243345 70 1167ft 80kts
25-Oct-19 09:45 34.098323 -117.226705 66 1923ft 77kts
25-Oct-19 09:46 34.106361 -117.210674 44 2658ft 78kts
25-Oct-19 09:47 34.119035 -117.200497 27 3323ft 80kts
25-Oct-19 09:48 34.133349 -117.198409 335 3869ft 88kts
25-Oct-19 09:49 34.139597 -117.214010 257 4381ft 92kts
25-Oct-19 09:50 34.135202 -117.234318 255 4558ft 108kts
25-Oct-19 09:51 34.130200 -117.254588 253 4556ft 105kts
25-Oct-19 09:52 34.124176 -117.274932 249 4546ft 115kts
25-Oct-19 09:53 34.117507 -117.296268 249 4502ft 117kts
25-Oct-19 09:54 34.110823 -117.317714 249 4501ft 115kts
25-Oct-19 09:55 34.104176 -117.339162 249 4501ft 115kts
25-Oct-19 09:56 34.097487 -117.360846 249 4501ft 115kts
25-Oct-19 09:57 34.090801 -117.382619 249 4501ft 115kts
25-Oct-19 09:58 34.084172 -117.404308 249 4501ft 115kts
25-Oct-19 09:59 34.078690 -117.426802 263 4500ft 115kts
25-Oct-19 10:00 34.077218 -117.449636 270 4499ft 115kts
25-Oct-19 10:01 34.077292 -117.472495 269 4499ft 115kts
25-Oct-19 10:02 34.077020 -117.495708 269 4499ft 115kts
25-Oct-19 10:03 34.076791 -117.517307 269 4499ft 115kts
25-Oct-19 10:04 34.076647 -117.539393 271 4499ft 115kts
25-Oct-19 10:05 34.077411 -117.562011 272 4499ft 115kts
25-Oct-19 10:06 34.078260 -117.585142 272 4499ft 115kts
25-Oct-19 10:07 34.079510 -117.607599 274 4499ft 115kts
25-Oct-19 10:08 34.080743 -117.630351 274 4499ft 115kts
25-Oct-19 10:09 34.081948 -117.652977 271 4499ft 115kts
25-Oct-19 10:10 34.082251 -117.673159 270 4499ft 115kts
25-Oct-19 10:11 34.082557 -117.695346 270 4499ft 115kts
25-Oct-19 10:12 34.082886 -117.717209 270 4499ft 115kts
25-Oct-19 10:13 34.083255 -117.739880 270 4499ft 115kts
25-Oct-19 10:14 34.083659 -117.762875 271 4499ft 115kts
25-Oct-19 10:15 34.084096 -117.786128 271 4499ft 115kts
25-Oct-19 10:16 34.084547 -117.808770 271 4497ft 115kts
25-Oct-19 10:17 34.084964 -117.830181 269 4186ft 103kts
25-Oct-19 10:18 34.082978 -117.850581 257 3810ft 110kts
25-Oct-19 10:19 34.076499 -117.871688 248 3393ft 113kts
25-Oct-19 10:20 34.069473 -117.893386 248 2966ft 114kts
25-Oct-19 10:21 34.063012 -117.914930 253 2547ft 115kts
25-Oct-19 10:22 34.057580 -117.937559 253 2139ft 120kts
25-Oct-19 10:23 34.053567 -117.959229 274 2070ft 104kts
25-Oct-19 10:24 34.057364 -117.982041 281 1887ft 115kts
25-Oct-19 10:25 34.063990 -118.003620 294 1722ft 111kts
25-Oct-19 10:26 34.078301 -118.011040 23 1722ft 108kts
25-Oct-19 10:27 34.096648 -118.002916 18 1676ft 110kts
25-Oct-19 10:28 34.111773 -118.008092 287 1580ft 103kts
25-Oct-19 10:29 34.106631 -118.025426 183 1087ft 93kts
25-Oct-19 10:30 34.092485 -118.031072 206 501ft 70kts
25-Oct-19 10:31 34.085389 -118.034691 151 287ft 11kts

Navigation Log

Ident Type
Flight plan parsing failed, navigation log unavailable